Terminal Aerodrome Forecast
Issued by NWS Melbourne, FL

Home | Current Version | Previous Version | Text Only | Print | Product List | Glossary On
Versions: 1 2 3 4 5 6 7 8 9 10 11 12 13 14 15 16 17 18 19 20 21 22 23 24
000
FTUS42 KMLB 282000 AAA
TAFMCO
TAF AMD
KMCO 282054Z 2821/2918 28013KT P6SM VCTS SCT045CB BKN260
     FM290100 25006KT P6SM SCT250
     FM291300 28012KT P6SM VCSH SCT040 BKN080 BKN250=

USA.gov is the U.S. government's official web portal to all federal, state and local government web resources and services.